sensor_id;sensor_type;location;lat;lon;timestamp;P1;durP1;ratioP1;P2;durP2;ratioP2
12412;SDS011;13877;18.896;-99.222;2023-03-14T00:01:16;35.33;;;4.95;;
12412;SDS011;13877;18.896;-99.222;2023-03-14T00:03:46;27.47;;;3.87;;
12412;SDS011;13877;18.896;-99.222;2023-03-14T00:06:13;35.00;;;3.63;;
12412;SDS011;13877;18.896;-99.222;2023-03-14T00:08:42;54.08;;;5.38;;
12412;SDS011;13877;18.896;-99.222;2023-03-14T00:11:19;41.40;;;4.20;;
12412;SDS011;13877;18.896;-99.222;2023-03-14T00:13:50;32.13;;;3.90;;
12412;SDS011;13877;18.896;-99.222;2023-03-14T00:16:18;23.67;;;4.20;;
12412;SDS011;13877;18.896;-99.222;2023-03-14T00:18:46;18.02;;;3.67;;
12412;SDS011;13877;18.896;-99.222;2023-03-14T00:21:13;19.23;;;4.00;;
12412;SDS011;13877;18.896;-99.222;2023-03-14T00:23:41;18.23;;;2.97;;
12412;SDS011;13877;18.896;-99.222;2023-03-14T00:26:13;10.30;;;3.20;;
12412;SDS011;13877;18.896;-99.222;2023-03-14T00:28:42;16.90;;;2.88;;
12412;SDS011;13877;18.896;-99.222;2023-03-14T00:31:10;12.20;;;2.92;;
12412;SDS011;13877;18.896;-99.222;2023-03-14T00:33:40;15.23;;;3.45;;
12412;SDS011;13877;18.896;-99.222;2023-03-14T00:36:09;7.50;;;2.75;;
12412;SDS011;13877;18.896;-99.222;2023-03-14T00:38:38;17.45;;;3.65;;
12412;SDS011;13877;18.896;-99.222;2023-03-14T00:41:07;18.85;;;3.15;;
12412;SDS011;13877;18.896;-99.222;2023-03-14T00:43:36;4.80;;;3.00;;
12412;SDS011;13877;18.896;-99.222;2023-03-14T00:46:03;4.72;;;2.63;;
12412;SDS011;13877;18.896;-99.222;2023-03-14T00:48:32;7.50;;;2.40;;
12412;SDS011;13877;18.896;-99.222;2023-03-14T00:51:00;6.10;;;2.60;;
12412;SDS011;13877;18.896;-99.222;2023-03-14T00:53:27;8.73;;;2.20;;
12412;SDS011;13877;18.896;-99.222;2023-03-14T00:55:54;10.85;;;2.75;;
12412;SDS011;13877;18.896;-99.222;2023-03-14T00:58:21;10.15;;;3.13;;
12412;SDS011;13877;18.896;-99.222;2023-03-14T01:00:48;12.13;;;2.80;;
12412;SDS011;13877;18.896;-99.222;2023-03-14T01:03:16;7.28;;;2.72;;
12412;SDS011;13877;18.896;-99.222;2023-03-14T01:05:43;7.20;;;2.17;;
12412;SDS011;13877;18.896;-99.222;2023-03-14T01:08:10;10.32;;;2.50;;
12412;SDS011;13877;18.896;-99.222;2023-03-14T01:10:37;9.48;;;2.47;;
12412;SDS011;13877;18.896;-99.222;2023-03-14T01:13:06;6.35;;;2.83;;
12412;SDS011;13877;18.896;-99.222;2023-03-14T01:15:35;4.07;;;2.75;;
12412;SDS011;13877;18.896;-99.222;2023-03-14T01:18:04;6.65;;;3.00;;
12412;SDS011;13877;18.896;-99.222;2023-03-14T01:20:31;5.90;;;2.40;;
12412;SDS011;13877;18.896;-99.222;2023-03-14T01:22:58;7.57;;;2.70;;
12412;SDS011;13877;18.896;-99.222;2023-03-14T01:25:25;4.90;;;2.58;;
12412;SDS011;13877;18.896;-99.222;2023-03-14T01:27:53;2.67;;;1.98;;
12412;SDS011;13877;18.896;-99.222;2023-03-14T01:30:20;8.07;;;2.38;;
12412;SDS011;13877;18.896;-99.222;2023-03-14T01:32:48;5.57;;;2.25;;
12412;SDS011;13877;18.896;-99.222;2023-03-14T01:35:14;15.07;;;2.75;;
12412;SDS011;13877;18.896;-99.222;2023-03-14T01:37:42;6.63;;;2.47;;
12412;SDS011;13877;18.896;-99.222;2023-03-14T01:40:14;4.55;;;2.33;;
12412;SDS011;13877;18.896;-99.222;2023-03-14T01:48:42;9.18;;;2.78;;
12412;SDS011;13877;18.896;-99.222;2023-03-14T01:54:05;15.30;;;3.08;;
12412;SDS011;13877;18.896;-99.222;2023-03-14T01:56:56;7.70;;;2.80;;
12412;SDS011;13877;18.896;-99.222;2023-03-14T01:59:30;16.20;;;3.13;;
12412;SDS011;13877;18.896;-99.222;2023-03-14T02:01:58;6.53;;;2.60;;
12412;SDS011;13877;18.896;-99.222;2023-03-14T02:04:30;9.65;;;2.63;;
12412;SDS011;13877;18.896;-99.222;2023-03-14T02:07:06;13.05;;;2.50;;
12412;SDS011;13877;18.896;-99.222;2023-03-14T02:09:59;6.50;;;2.17;;
12412;SDS011;13877;18.896;-99.222;2023-03-14T02:12:30;5.28;;;2.38;;
12412;SDS011;13877;18.896;-99.222;2023-03-14T02:15:17;6.57;;;1.98;;
12412;SDS011;13877;18.896;-99.222;2023-03-14T02:18:10;4.63;;;2.22;;
12412;SDS011;13877;18.896;-99.222;2023-03-14T02:26:28;7.15;;;1.90;;
12412;SDS011;13877;18.896;-99.222;2023-03-14T02:29:02;3.70;;;2.08;;
12412;SDS011;13877;18.896;-99.222;2023-03-14T02:31:29;4.50;;;1.85;;
12412;SDS011;13877;18.896;-99.222;2023-03-14T02:33:57;3.67;;;2.00;;
12412;SDS011;13877;18.896;-99.222;2023-03-14T02:36:28;3.80;;;2.40;;
12412;SDS011;13877;18.896;-99.222;2023-03-14T02:39:02;5.43;;;2.42;;
12412;SDS011;13877;18.896;-99.222;2023-03-14T02:41:34;5.30;;;2.35;;
12412;SDS011;13877;18.896;-99.222;2023-03-14T02:44:04;3.10;;;2.20;;
12412;SDS011;13877;18.896;-99.222;2023-03-14T02:46:33;9.00;;;2.33;;
12412;SDS011;13877;18.896;-99.222;2023-03-14T02:49:04;9.43;;;2.25;;
12412;SDS011;13877;18.896;-99.222;2023-03-14T02:51:37;5.95;;;2.58;;
12412;SDS011;13877;18.896;-99.222;2023-03-14T02:54:05;5.03;;;2.70;;
12412;SDS011;13877;18.896;-99.222;2023-03-14T02:56:33;5.20;;;3.30;;
12412;SDS011;13877;18.896;-99.222;2023-03-14T02:59:04;9.80;;;3.67;;
12412;SDS011;13877;18.896;-99.222;2023-03-14T03:01:38;6.38;;;3.42;;
12412;SDS011;13877;18.896;-99.222;2023-03-14T03:04:07;6.63;;;3.40;;
12412;SDS011;13877;18.896;-99.222;2023-03-14T03:06:34;6.60;;;3.17;;
12412;SDS011;13877;18.896;-99.222;2023-03-14T03:09:01;7.72;;;3.25;;
12412;SDS011;13877;18.896;-99.222;2023-03-14T03:11:28;8.82;;;3.22;;
12412;SDS011;13877;18.896;-99.222;2023-03-14T03:13:55;9.15;;;3.10;;
12412;SDS011;13877;18.896;-99.222;2023-03-14T03:16:22;5.57;;;3.00;;
12412;SDS011;13877;18.896;-99.222;2023-03-14T03:18:50;6.88;;;3.88;;
12412;SDS011;13877;18.896;-99.222;2023-03-14T03:21:19;10.68;;;3.80;;
12412;SDS011;13877;18.896;-99.222;2023-03-14T03:23:49;7.75;;;3.78;;
12412;SDS011;13877;18.896;-99.222;2023-03-14T03:26:16;6.60;;;3.85;;
12412;SDS011;13877;18.896;-99.222;2023-03-14T03:28:43;5.13;;;3.90;;
12412;SDS011;13877;18.896;-99.222;2023-03-14T03:31:13;5.80;;;3.72;;
12412;SDS011;13877;18.896;-99.222;2023-03-14T03:33:40;4.30;;;3.20;;
12412;SDS011;13877;18.896;-99.222;2023-03-14T03:36:07;6.05;;;3.15;;
12412;SDS011;13877;18.896;-99.222;2023-03-14T03:38:38;8.82;;;3.50;;
12412;SDS011;13877;18.896;-99.222;2023-03-14T03:41:05;8.73;;;3.60;;
12412;SDS011;13877;18.896;-99.222;2023-03-14T03:43:33;7.20;;;3.05;;
12412;SDS011;13877;18.896;-99.222;2023-03-14T03:46:05;9.32;;;3.65;;
12412;SDS011;13877;18.896;-99.222;2023-03-14T03:48:33;19.52;;;3.17;;
12412;SDS011;13877;18.896;-99.222;2023-03-14T03:51:03;8.32;;;3.65;;
12412;SDS011;13877;18.896;-99.222;2023-03-14T03:53:31;5.63;;;3.28;;
12412;SDS011;13877;18.896;-99.222;2023-03-14T03:55:58;12.63;;;3.22;;
12412;SDS011;13877;18.896;-99.222;2023-03-14T03:58:25;6.72;;;3.20;;
12412;SDS011;13877;18.896;-99.222;2023-03-14T04:00:51;8.57;;;3.22;;
12412;SDS011;13877;18.896;-99.222;2023-03-14T04:03:19;14.40;;;3.45;;
12412;SDS011;13877;18.896;-99.222;2023-03-14T04:05:46;4.80;;;3.17;;
12412;SDS011;13877;18.896;-99.222;2023-03-14T04:08:23;5.53;;;3.03;;
12412;SDS011;13877;18.896;-99.222;2023-03-14T04:10:53;6.15;;;2.92;;
12412;SDS011;13877;18.896;-99.222;2023-03-14T04:13:42;8.48;;;3.10;;
12412;SDS011;13877;18.896;-99.222;2023-03-14T04:16:16;6.82;;;2.95;;
12412;SDS011;13877;18.896;-99.222;2023-03-14T04:18:50;6.60;;;3.05;;
12412;SDS011;13877;18.896;-99.222;2023-03-14T04:21:20;4.43;;;2.90;;
12412;SDS011;13877;18.896;-99.222;2023-03-14T04:23:53;6.50;;;3.08;;
12412;SDS011;13877;18.896;-99.222;2023-03-14T04:26:20;7.88;;;3.30;;
12412;SDS011;13877;18.896;-99.222;2023-03-14T04:28:47;8.43;;;3.03;;
12412;SDS011;13877;18.896;-99.222;2023-03-14T04:31:18;7.57;;;3.15;;
12412;SDS011;13877;18.896;-99.222;2023-03-14T04:33:48;7.38;;;3.47;;
12412;SDS011;13877;18.896;-99.222;2023-03-14T04:36:20;16.40;;;3.42;;
12412;SDS011;13877;18.896;-99.222;2023-03-14T04:38:47;8.60;;;3.00;;
12412;SDS011;13877;18.896;-99.222;2023-03-14T04:41:18;7.25;;;3.17;;
12412;SDS011;13877;18.896;-99.222;2023-03-14T04:43:46;5.53;;;3.13;;
12412;SDS011;13877;18.896;-99.222;2023-03-14T04:46:13;8.18;;;3.30;;
12412;SDS011;13877;18.896;-99.222;2023-03-14T04:48:41;8.65;;;3.78;;
12412;SDS011;13877;18.896;-99.222;2023-03-14T04:51:08;7.40;;;3.25;;
12412;SDS011;13877;18.896;-99.222;2023-03-14T04:53:35;12.48;;;3.53;;
12412;SDS011;13877;18.896;-99.222;2023-03-14T04:56:06;17.13;;;3.40;;
12412;SDS011;13877;18.896;-99.222;2023-03-14T04:58:37;13.05;;;3.25;;
12412;SDS011;13877;18.896;-99.222;2023-03-14T05:01:05;12.15;;;3.45;;
12412;SDS011;13877;18.896;-99.222;2023-03-14T05:03:32;9.80;;;3.25;;
12412;SDS011;13877;18.896;-99.222;2023-03-14T05:06:33;6.70;;;3.80;;
12412;SDS011;13877;18.896;-99.222;2023-03-14T05:09:23;9.73;;;3.20;;
12412;SDS011;13877;18.896;-99.222;2023-03-14T05:12:20;10.70;;;3.38;;
12412;SDS011;13877;18.896;-99.222;2023-03-14T05:15:03;8.88;;;3.30;;
12412;SDS011;13877;18.896;-99.222;2023-03-14T05:17:57;6.93;;;3.15;;
12412;SDS011;13877;18.896;-99.222;2023-03-14T05:20:49;6.78;;;3.53;;
12412;SDS011;13877;18.896;-99.222;2023-03-14T05:23:24;10.20;;;3.03;;
12412;SDS011;13877;18.896;-99.222;2023-03-14T05:26:09;6.13;;;3.20;;
12412;SDS011;13877;18.896;-99.222;2023-03-14T05:28:59;8.20;;;3.88;;
12412;SDS011;13877;18.896;-99.222;2023-03-14T05:31:36;10.43;;;3.50;;
12412;SDS011;13877;18.896;-99.222;2023-03-14T05:34:22;7.68;;;3.28;;
12412;SDS011;13877;18.896;-99.222;2023-03-14T05:37:07;16.00;;;4.15;;
12412;SDS011;13877;18.896;-99.222;2023-03-14T05:40:13;10.63;;;3.53;;
12412;SDS011;13877;18.896;-99.222;2023-03-14T05:42:58;10.35;;;4.15;;
12412;SDS011;13877;18.896;-99.222;2023-03-14T05:45:52;13.88;;;4.65;;
12412;SDS011;13877;18.896;-99.222;2023-03-14T05:48:48;13.60;;;4.13;;
12412;SDS011;13877;18.896;-99.222;2023-03-14T05:51:33;8.40;;;3.78;;
12412;SDS011;13877;18.896;-99.222;2023-03-14T05:54:17;9.98;;;3.97;;
12412;SDS011;13877;18.896;-99.222;2023-03-14T05:57:07;12.80;;;3.55;;
12412;SDS011;13877;18.896;-99.222;2023-03-14T05:59:53;10.20;;;3.80;;
12412;SDS011;13877;18.896;-99.222;2023-03-14T06:02:40;10.52;;;4.00;;
12412;SDS011;13877;18.896;-99.222;2023-03-14T06:05:18;9.68;;;4.45;;
12412;SDS011;13877;18.896;-99.222;2023-03-14T06:07:46;13.07;;;3.97;;
12412;SDS011;13877;18.896;-99.222;2023-03-14T06:10:13;12.30;;;3.95;;
12412;SDS011;13877;18.896;-99.222;2023-03-14T06:12:40;11.70;;;3.97;;
12412;SDS011;13877;18.896;-99.222;2023-03-14T06:15:07;17.80;;;4.43;;
12412;SDS011;13877;18.896;-99.222;2023-03-14T06:17:35;20.02;;;4.75;;
12412;SDS011;13877;18.896;-99.222;2023-03-14T06:20:07;12.68;;;4.45;;
12412;SDS011;13877;18.896;-99.222;2023-03-14T06:22:35;18.63;;;4.50;;
12412;SDS011;13877;18.896;-99.222;2023-03-14T06:25:02;9.05;;;3.80;;
12412;SDS011;13877;18.896;-99.222;2023-03-14T06:27:30;17.45;;;4.40;;
12412;SDS011;13877;18.896;-99.222;2023-03-14T06:29:57;16.70;;;5.18;;
12412;SDS011;13877;18.896;-99.222;2023-03-14T06:32:25;16.67;;;5.05;;
12412;SDS011;13877;18.896;-99.222;2023-03-14T06:34:56;16.90;;;5.03;;
12412;SDS011;13877;18.896;-99.222;2023-03-14T06:37:28;10.70;;;4.50;;
12412;SDS011;13877;18.896;-99.222;2023-03-14T06:39:56;14.10;;;4.75;;
12412;SDS011;13877;18.896;-99.222;2023-03-14T06:42:46;12.32;;;4.75;;
12412;SDS011;13877;18.896;-99.222;2023-03-14T06:45:15;15.93;;;5.07;;
12412;SDS011;13877;18.896;-99.222;2023-03-14T06:47:42;15.98;;;5.50;;
12412;SDS011;13877;18.896;-99.222;2023-03-14T06:50:10;12.50;;;5.13;;
12412;SDS011;13877;18.896;-99.222;2023-03-14T06:52:38;9.77;;;4.90;;
12412;SDS011;13877;18.896;-99.222;2023-03-14T06:55:16;17.50;;;4.93;;
12412;SDS011;13877;18.896;-99.222;2023-03-14T06:57:43;19.88;;;4.53;;
12412;SDS011;13877;18.896;-99.222;2023-03-14T07:00:11;17.20;;;4.57;;
12412;SDS011;13877;18.896;-99.222;2023-03-14T07:02:40;7.70;;;4.45;;
12412;SDS011;13877;18.896;-99.222;2023-03-14T07:05:10;14.10;;;4.47;;
12412;SDS011;13877;18.896;-99.222;2023-03-14T07:07:38;16.10;;;4.80;;
12412;SDS011;13877;18.896;-99.222;2023-03-14T07:10:05;10.32;;;4.20;;
12412;SDS011;13877;18.896;-99.222;2023-03-14T07:12:34;9.18;;;4.60;;
12412;SDS011;13877;18.896;-99.222;2023-03-14T07:15:01;11.70;;;3.95;;
12412;SDS011;13877;18.896;-99.222;2023-03-14T07:17:28;8.82;;;3.97;;
12412;SDS011;13877;18.896;-99.222;2023-03-14T07:19:57;11.13;;;3.80;;
12412;SDS011;13877;18.896;-99.222;2023-03-14T07:22:26;9.18;;;3.85;;
12412;SDS011;13877;18.896;-99.222;2023-03-14T07:24:54;8.68;;;3.83;;
12412;SDS011;13877;18.896;-99.222;2023-03-14T07:27:23;12.57;;;3.88;;
12412;SDS011;13877;18.896;-99.222;2023-03-14T07:29:50;17.67;;;3.90;;
12412;SDS011;13877;18.896;-99.222;2023-03-14T07:32:18;19.30;;;3.75;;
12412;SDS011;13877;18.896;-99.222;2023-03-14T07:34:47;7.40;;;3.40;;
12412;SDS011;13877;18.896;-99.222;2023-03-14T07:37:14;11.00;;;4.13;;
12412;SDS011;13877;18.896;-99.222;2023-03-14T07:39:41;11.38;;;3.47;;
12412;SDS011;13877;18.896;-99.222;2023-03-14T07:42:15;6.15;;;3.67;;
12412;SDS011;13877;18.896;-99.222;2023-03-14T07:45:05;7.60;;;3.58;;
12412;SDS011;13877;18.896;-99.222;2023-03-14T07:47:33;12.90;;;3.65;;
12412;SDS011;13877;18.896;-99.222;2023-03-14T07:50:00;5.00;;;3.28;;
12412;SDS011;13877;18.896;-99.222;2023-03-14T07:52:27;7.82;;;3.53;;
12412;SDS011;13877;18.896;-99.222;2023-03-14T07:54:54;8.75;;;4.35;;
12412;SDS011;13877;18.896;-99.222;2023-03-14T07:57:21;8.57;;;4.05;;
12412;SDS011;13877;18.896;-99.222;2023-03-14T07:59:49;10.98;;;4.47;;
12412;SDS011;13877;18.896;-99.222;2023-03-14T08:02:16;10.40;;;4.45;;
12412;SDS011;13877;18.896;-99.222;2023-03-14T08:04:45;11.27;;;3.80;;
12412;SDS011;13877;18.896;-99.222;2023-03-14T08:07:13;9.30;;;4.28;;
12412;SDS011;13877;18.896;-99.222;2023-03-14T08:09:39;7.07;;;4.38;;
12412;SDS011;13877;18.896;-99.222;2023-03-14T08:12:07;7.75;;;4.32;;
12412;SDS011;13877;18.896;-99.222;2023-03-14T08:14:34;13.20;;;5.00;;
12412;SDS011;13877;18.896;-99.222;2023-03-14T08:17:01;8.55;;;4.47;;
12412;SDS011;13877;18.896;-99.222;2023-03-14T08:19:28;9.88;;;4.50;;
12412;SDS011;13877;18.896;-99.222;2023-03-14T08:21:55;11.10;;;4.80;;
12412;SDS011;13877;18.896;-99.222;2023-03-14T08:24:22;14.77;;;4.32;;
12412;SDS011;13877;18.896;-99.222;2023-03-14T08:26:49;13.63;;;4.95;;
12412;SDS011;13877;18.896;-99.222;2023-03-14T08:29:17;8.60;;;4.30;;
12412;SDS011;13877;18.896;-99.222;2023-03-14T08:31:44;19.23;;;4.97;;
12412;SDS011;13877;18.896;-99.222;2023-03-14T08:34:11;15.85;;;4.32;;
12412;SDS011;13877;18.896;-99.222;2023-03-14T08:36:38;8.52;;;5.03;;
12412;SDS011;13877;18.896;-99.222;2023-03-14T08:39:05;16.05;;;5.38;;
12412;SDS011;13877;18.896;-99.222;2023-03-14T08:41:33;17.48;;;5.75;;
12412;SDS011;13877;18.896;-99.222;2023-03-14T08:44:06;9.95;;;4.90;;
12412;SDS011;13877;18.896;-99.222;2023-03-14T08:46:33;8.95;;;4.88;;
12412;SDS011;13877;18.896;-99.222;2023-03-14T08:49:00;11.30;;;5.40;;
12412;SDS011;13877;18.896;-99.222;2023-03-14T08:51:27;14.10;;;5.03;;
12412;SDS011;13877;18.896;-99.222;2023-03-14T08:53:54;13.60;;;6.00;;
12412;SDS011;13877;18.896;-99.222;2023-03-14T08:56:21;11.85;;;5.22;;
12412;SDS011;13877;18.896;-99.222;2023-03-14T08:58:49;11.48;;;4.88;;
12412;SDS011;13877;18.896;-99.222;2023-03-14T09:01:16;8.75;;;4.78;;
12412;SDS011;13877;18.896;-99.222;2023-03-14T09:03:45;11.68;;;5.40;;
12412;SDS011;13877;18.896;-99.222;2023-03-14T09:06:13;22.73;;;5.45;;
12412;SDS011;13877;18.896;-99.222;2023-03-14T09:08:43;12.80;;;5.38;;
12412;SDS011;13877;18.896;-99.222;2023-03-14T09:11:11;16.52;;;5.30;;
12412;SDS011;13877;18.896;-99.222;2023-03-14T09:13:39;13.68;;;5.22;;
12412;SDS011;13877;18.896;-99.222;2023-03-14T09:16:06;13.48;;;6.00;;
12412;SDS011;13877;18.896;-99.222;2023-03-14T09:18:34;12.63;;;5.13;;
12412;SDS011;13877;18.896;-99.222;2023-03-14T09:21:01;12.07;;;5.07;;
12412;SDS011;13877;18.896;-99.222;2023-03-14T09:23:28;14.63;;;5.35;;
12412;SDS011;13877;18.896;-99.222;2023-03-14T09:25:56;9.80;;;5.20;;
12412;SDS011;13877;18.896;-99.222;2023-03-14T09:28:24;13.38;;;5.47;;
12412;SDS011;13877;18.896;-99.222;2023-03-14T09:30:51;13.93;;;6.03;;
12412;SDS011;13877;18.896;-99.222;2023-03-14T09:33:18;15.13;;;6.53;;
12412;SDS011;13877;18.896;-99.222;2023-03-14T09:35:45;17.50;;;5.78;;
12412;SDS011;13877;18.896;-99.222;2023-03-14T09:38:12;10.98;;;5.50;;
12412;SDS011;13877;18.896;-99.222;2023-03-14T09:40:39;12.98;;;5.47;;
12412;SDS011;13877;18.896;-99.222;2023-03-14T09:43:09;12.00;;;5.35;;
12412;SDS011;13877;18.896;-99.222;2023-03-14T09:45:41;11.27;;;5.47;;
12412;SDS011;13877;18.896;-99.222;2023-03-14T09:48:30;14.30;;;5.87;;
12412;SDS011;13877;18.896;-99.222;2023-03-14T09:51:06;12.63;;;5.18;;
12412;SDS011;13877;18.896;-99.222;2023-03-14T09:53:41;15.23;;;6.20;;
12412;SDS011;13877;18.896;-99.222;2023-03-14T09:56:14;24.05;;;6.00;;
12412;SDS011;13877;18.896;-99.222;2023-03-14T09:58:51;15.52;;;6.20;;
12412;SDS011;13877;18.896;-99.222;2023-03-14T10:01:27;14.85;;;7.03;;
12412;SDS011;13877;18.896;-99.222;2023-03-14T10:03:57;14.68;;;7.00;;
12412;SDS011;13877;18.896;-99.222;2023-03-14T10:06:30;12.55;;;6.45;;
12412;SDS011;13877;18.896;-99.222;2023-03-14T10:08:57;20.50;;;6.63;;
12412;SDS011;13877;18.896;-99.222;2023-03-14T10:11:24;24.45;;;7.22;;
12412;SDS011;13877;18.896;-99.222;2023-03-14T10:16:29;17.17;;;6.45;;
12412;SDS011;13877;18.896;-99.222;2023-03-14T10:19:05;27.80;;;7.15;;
12412;SDS011;13877;18.896;-99.222;2023-03-14T10:21:40;14.95;;;6.43;;
12412;SDS011;13877;18.896;-99.222;2023-03-14T10:24:30;21.55;;;7.05;;
12412;SDS011;13877;18.896;-99.222;2023-03-14T10:27:00;15.93;;;6.30;;
12412;SDS011;13877;18.896;-99.222;2023-03-14T10:29:30;15.75;;;6.18;;
12412;SDS011;13877;18.896;-99.222;2023-03-14T10:32:03;14.88;;;6.35;;
12412;SDS011;13877;18.896;-99.222;2023-03-14T10:34:34;16.70;;;6.57;;
12412;SDS011;13877;18.896;-99.222;2023-03-14T10:37:07;12.50;;;6.55;;
12412;SDS011;13877;18.896;-99.222;2023-03-14T10:39:48;14.43;;;6.32;;
12412;SDS011;13877;18.896;-99.222;2023-03-14T10:42:22;21.63;;;6.90;;
12412;SDS011;13877;18.896;-99.222;2023-03-14T10:44:56;12.60;;;5.90;;
12412;SDS011;13877;18.896;-99.222;2023-03-14T10:47:26;13.10;;;6.28;;
12412;SDS011;13877;18.896;-99.222;2023-03-14T10:49:54;10.40;;;5.68;;
12412;SDS011;13877;18.896;-99.222;2023-03-14T10:55:04;16.58;;;6.45;;
12412;SDS011;13877;18.896;-99.222;2023-03-14T10:57:41;13.48;;;5.82;;
12412;SDS011;13877;18.896;-99.222;2023-03-14T11:00:29;15.30;;;6.18;;
12412;SDS011;13877;18.896;-99.222;2023-03-14T11:06:11;14.32;;;6.50;;
12412;SDS011;13877;18.896;-99.222;2023-03-14T11:11:43;18.83;;;7.30;;
12412;SDS011;13877;18.896;-99.222;2023-03-14T11:28:29;14.40;;;5.50;;
12412;SDS011;13877;18.896;-99.222;2023-03-14T11:31:06;26.73;;;6.53;;
12412;SDS011;13877;18.896;-99.222;2023-03-14T11:34:06;20.35;;;6.20;;
12412;SDS011;13877;18.896;-99.222;2023-03-14T11:36:51;26.42;;;6.00;;
12412;SDS011;13877;18.896;-99.222;2023-03-14T11:39:27;14.13;;;6.50;;
12412;SDS011;13877;18.896;-99.222;2023-03-14T11:44:38;16.77;;;6.47;;
12412;SDS011;13877;18.896;-99.222;2023-03-14T11:52:47;17.58;;;6.03;;
12412;SDS011;13877;18.896;-99.222;2023-03-14T11:55:35;12.57;;;5.97;;
12412;SDS011;13877;18.896;-99.222;2023-03-14T11:58:15;22.15;;;5.43;;
12412;SDS011;13877;18.896;-99.222;2023-03-14T12:00:53;13.18;;;6.07;;
12412;SDS011;13877;18.896;-99.222;2023-03-14T12:06:24;21.58;;;6.43;;
12412;SDS011;13877;18.896;-99.222;2023-03-14T12:09:07;15.63;;;6.05;;
12412;SDS011;13877;18.896;-99.222;2023-03-14T12:14:33;20.05;;;6.78;;
12412;SDS011;13877;18.896;-99.222;2023-03-14T12:17:06;17.30;;;6.22;;
12412;SDS011;13877;18.896;-99.222;2023-03-14T12:20:04;13.65;;;6.35;;
12412;SDS011;13877;18.896;-99.222;2023-03-14T12:22:54;16.98;;;6.43;;
12412;SDS011;13877;18.896;-99.222;2023-03-14T12:25:27;14.68;;;6.15;;
12412;SDS011;13877;18.896;-99.222;2023-03-14T12:30:38;13.55;;;6.20;;
12412;SDS011;13877;18.896;-99.222;2023-03-14T12:35:47;17.90;;;6.22;;
12412;SDS011;13877;18.896;-99.222;2023-03-14T12:38:17;18.77;;;6.05;;
12412;SDS011;13877;18.896;-99.222;2023-03-14T12:43:50;22.42;;;6.65;;
12412;SDS011;13877;18.896;-99.222;2023-03-14T12:48:45;13.38;;;5.82;;
12412;SDS011;13877;18.896;-99.222;2023-03-14T12:51:29;16.98;;;5.60;;
12412;SDS011;13877;18.896;-99.222;2023-03-14T12:54:27;33.28;;;6.93;;
12412;SDS011;13877;18.896;-99.222;2023-03-14T13:02:26;17.67;;;6.50;;
12412;SDS011;13877;18.896;-99.222;2023-03-14T13:05:23;14.15;;;5.78;;
12412;SDS011;13877;18.896;-99.222;2023-03-14T13:10:28;15.80;;;6.00;;
12412;SDS011;13877;18.896;-99.222;2023-03-14T13:13:20;19.58;;;6.85;;
12412;SDS011;13877;18.896;-99.222;2023-03-14T13:15:49;17.63;;;6.97;;
12412;SDS011;13877;18.896;-99.222;2023-03-14T13:18:36;18.55;;;7.03;;
12412;SDS011;13877;18.896;-99.222;2023-03-14T13:21:13;23.92;;;7.40;;
12412;SDS011;13877;18.896;-99.222;2023-03-14T13:23:58;16.25;;;6.72;;
12412;SDS011;13877;18.896;-99.222;2023-03-14T13:26:40;19.15;;;6.45;;
12412;SDS011;13877;18.896;-99.222;2023-03-14T13:29:42;25.40;;;6.78;;
12412;SDS011;13877;18.896;-99.222;2023-03-14T13:32:13;14.40;;;6.55;;
12412;SDS011;13877;18.896;-99.222;2023-03-14T13:34:45;28.35;;;6.78;;
12412;SDS011;13877;18.896;-99.222;2023-03-14T13:37:19;18.42;;;6.65;;
12412;SDS011;13877;18.896;-99.222;2023-03-14T13:39:55;25.50;;;6.78;;
12412;SDS011;13877;18.896;-99.222;2023-03-14T13:42:26;28.80;;;7.18;;
12412;SDS011;13877;18.896;-99.222;2023-03-14T13:44:55;32.15;;;7.72;;
12412;SDS011;13877;18.896;-99.222;2023-03-14T13:47:24;13.50;;;7.10;;
12412;SDS011;13877;18.896;-99.222;2023-03-14T13:49:52;20.45;;;5.85;;
12412;SDS011;13877;18.896;-99.222;2023-03-14T13:52:40;32.05;;;7.18;;
12412;SDS011;13877;18.896;-99.222;2023-03-14T13:55:14;35.65;;;7.50;;
12412;SDS011;13877;18.896;-99.222;2023-03-14T14:00:17;29.35;;;8.40;;
12412;SDS011;13877;18.896;-99.222;2023-03-14T14:02:46;40.70;;;9.57;;
12412;SDS011;13877;18.896;-99.222;2023-03-14T14:05:14;40.30;;;8.93;;
12412;SDS011;13877;18.896;-99.222;2023-03-14T14:07:42;40.22;;;9.13;;
12412;SDS011;13877;18.896;-99.222;2023-03-14T14:10:11;47.85;;;10.02;;
12412;SDS011;13877;18.896;-99.222;2023-03-14T14:12:44;37.28;;;9.82;;
12412;SDS011;13877;18.896;-99.222;2023-03-14T14:15:22;39.28;;;11.35;;
12412;SDS011;13877;18.896;-99.222;2023-03-14T14:17:54;59.75;;;15.60;;
12412;SDS011;13877;18.896;-99.222;2023-03-14T14:20:29;59.10;;;14.23;;
12412;SDS011;13877;18.896;-99.222;2023-03-14T14:23:03;44.35;;;14.32;;
12412;SDS011;13877;18.896;-99.222;2023-03-14T14:25:31;52.80;;;13.95;;
12412;SDS011;13877;18.896;-99.222;2023-03-14T14:28:13;52.03;;;14.05;;
12412;SDS011;13877;18.896;-99.222;2023-03-14T14:31:17;48.22;;;14.50;;
12412;SDS011;13877;18.896;-99.222;2023-03-14T14:39:02;27.42;;;10.25;;
12412;SDS011;13877;18.896;-99.222;2023-03-14T14:41:33;38.10;;;11.57;;
12412;SDS011;13877;18.896;-99.222;2023-03-14T14:44:05;39.53;;;10.88;;
12412;SDS011;13877;18.896;-99.222;2023-03-14T14:46:32;27.23;;;10.20;;
12412;SDS011;13877;18.896;-99.222;2023-03-14T14:51:33;22.33;;;9.27;;
12412;SDS011;13877;18.896;-99.222;2023-03-14T14:54:11;30.77;;;8.60;;
12412;SDS011;13877;18.896;-99.222;2023-03-14T14:56:44;21.90;;;9.00;;
12412;SDS011;13877;18.896;-99.222;2023-03-14T14:59:21;39.65;;;9.15;;
12412;SDS011;13877;18.896;-99.222;2023-03-14T15:01:58;33.15;;;8.40;;
12412;SDS011;13877;18.896;-99.222;2023-03-14T15:04:26;24.15;;;9.32;;
12412;SDS011;13877;18.896;-99.222;2023-03-14T15:06:57;26.95;;;8.57;;
12412;SDS011;13877;18.896;-99.222;2023-03-14T15:09:24;24.98;;;8.75;;
12412;SDS011;13877;18.896;-99.222;2023-03-14T15:11:51;18.27;;;8.45;;
12412;SDS011;13877;18.896;-99.222;2023-03-14T15:14:18;29.27;;;7.57;;
12412;SDS011;13877;18.896;-99.222;2023-03-14T15:16:44;29.83;;;7.95;;
12412;SDS011;13877;18.896;-99.222;2023-03-14T15:19:14;19.45;;;7.72;;
12412;SDS011;13877;18.896;-99.222;2023-03-14T15:21:53;17.08;;;7.82;;
12412;SDS011;13877;18.896;-99.222;2023-03-14T15:24:21;32.92;;;8.57;;
12412;SDS011;13877;18.896;-99.222;2023-03-14T15:26:49;27.02;;;9.27;;
12412;SDS011;13877;18.896;-99.222;2023-03-14T15:29:17;25.30;;;9.50;;
12412;SDS011;13877;18.896;-99.222;2023-03-14T15:31:43;30.88;;;8.95;;
12412;SDS011;13877;18.896;-99.222;2023-03-14T15:34:11;35.13;;;8.98;;
12412;SDS011;13877;18.896;-99.222;2023-03-14T15:36:38;25.50;;;8.50;;
12412;SDS011;13877;18.896;-99.222;2023-03-14T15:39:06;25.55;;;8.40;;
12412;SDS011;13877;18.896;-99.222;2023-03-14T15:41:33;24.35;;;8.05;;
12412;SDS011;13877;18.896;-99.222;2023-03-14T15:44:00;29.42;;;7.95;;
12412;SDS011;13877;18.896;-99.222;2023-03-14T15:46:27;20.58;;;7.60;;
12412;SDS011;13877;18.896;-99.222;2023-03-14T15:51:30;22.35;;;7.70;;
12412;SDS011;13877;18.896;-99.222;2023-03-14T15:53:57;17.20;;;6.80;;
12412;SDS011;13877;18.896;-99.222;2023-03-14T15:56:25;17.63;;;6.70;;
12412;SDS011;13877;18.896;-99.222;2023-03-14T15:58:56;14.85;;;7.22;;
12412;SDS011;13877;18.896;-99.222;2023-03-14T16:01:23;15.65;;;7.15;;
12412;SDS011;13877;18.896;-99.222;2023-03-14T16:03:52;17.88;;;6.78;;
12412;SDS011;13877;18.896;-99.222;2023-03-14T16:06:19;12.73;;;6.10;;
12412;SDS011;13877;18.896;-99.222;2023-03-14T16:08:45;21.67;;;6.47;;